sensor_id;sensor_type;location;lat;lon;timestamp;pressure;altitude;pressure_sealevel;temperature;humidity
41632;BME280;37452;51.938;4.624;2022-11-11T00:02:21;78383.66;;;-142.75;100.00
41632;BME280;37452;51.938;4.624;2022-11-11T00:04:46;78381.69;;;-142.75;100.00
41632;BME280;37452;51.938;4.624;2022-11-11T00:07:11;78385.63;;;-142.75;100.00
41632;BME280;37452;51.938;4.624;2022-11-11T00:09:37;78391.53;;;-142.75;100.00
41632;BME280;37452;51.938;4.624;2022-11-11T00:12:02;78381.69;;;-142.75;100.00
41632;BME280;37452;51.938;4.624;2022-11-11T00:14:27;78395.47;;;-142.75;100.00
41632;BME280;37452;51.938;4.624;2022-11-11T00:16:53;78389.56;;;-142.75;100.00
41632;BME280;37452;51.938;4.624;2022-11-11T00:19:36;78391.53;;;-142.75;100.00
41632;BME280;37452;51.938;4.624;2022-11-11T00:22:21;78389.56;;;-142.75;100.00
41632;BME280;37452;51.938;4.624;2022-11-11T00:25:05;78401.38;;;-142.75;100.00
41632;BME280;37452;51.938;4.624;2022-11-11T00:27:31;78397.44;;;-142.75;100.00
41632;BME280;37452;51.938;4.624;2022-11-11T00:29:56;78397.44;;;-142.75;100.00
41632;BME280;37452;51.938;4.624;2022-11-11T00:32:22;78409.28;;;-142.75;100.00
41632;BME280;37452;51.938;4.624;2022-11-11T00:34:48;78405.34;;;-142.75;100.00
41632;BME280;37452;51.938;4.624;2022-11-11T00:37:33;78397.44;;;-142.75;100.00
41632;BME280;37452;51.938;4.624;2022-11-11T00:39:58;78395.47;;;-142.75;100.00
41632;BME280;37452;51.938;4.624;2022-11-11T00:42:24;78389.56;;;-142.75;100.00
41632;BME280;37452;51.938;4.624;2022-11-11T00:44:49;78395.47;;;-142.75;100.00
41632;BME280;37452;51.938;4.624;2022-11-11T00:47:14;78389.56;;;-142.75;100.00
41632;BME280;37452;51.938;4.624;2022-11-11T00:49:59;78393.50;;;-142.75;100.00
41632;BME280;37452;51.938;4.624;2022-11-11T00:52:46;78383.66;;;-142.75;100.00
41632;BME280;37452;51.938;4.624;2022-11-11T00:55:12;78391.53;;;-142.75;100.00
41632;BME280;37452;51.938;4.624;2022-11-11T00:57:38;78385.63;;;-142.75;100.00
41632;BME280;37452;51.938;4.624;2022-11-11T01:00:04;78383.66;;;-142.75;100.00
41632;BME280;37452;51.938;4.624;2022-11-11T01:02:29;78369.88;;;-142.75;100.00
41632;BME280;37452;51.938;4.624;2022-11-11T01:04:55;78375.78;;;-142.75;100.00
41632;BME280;37452;51.938;4.624;2022-11-11T01:07:20;78383.66;;;-142.75;100.00
41632;BME280;37452;51.938;4.624;2022-11-11T01:09:45;78381.69;;;-142.75;100.00
41632;BME280;37452;51.938;4.624;2022-11-11T01:12:11;78385.63;;;-142.75;100.00
41632;BME280;37452;51.938;4.624;2022-11-11T01:14:36;78393.50;;;-142.75;100.00
41632;BME280;37452;51.938;4.624;2022-11-11T01:17:01;78387.59;;;-142.75;100.00
41632;BME280;37452;51.938;4.624;2022-11-11T01:19:28;78405.34;;;-142.75;100.00
41632;BME280;37452;51.938;4.624;2022-11-11T01:21:54;78385.63;;;-142.75;100.00
41632;BME280;37452;51.938;4.624;2022-11-11T01:24:19;78389.56;;;-142.75;100.00
41632;BME280;37452;51.938;4.624;2022-11-11T01:26:44;78383.66;;;-142.75;100.00
41632;BME280;37452;51.938;4.624;2022-11-11T01:29:10;78383.66;;;-142.75;100.00
41632;BME280;37452;51.938;4.624;2022-11-11T01:31:35;78385.63;;;-142.75;100.00
41632;BME280;37452;51.938;4.624;2022-11-11T01:34:00;78393.50;;;-142.75;100.00
41632;BME280;37452;51.938;4.624;2022-11-11T01:36:26;78397.44;;;-142.75;100.00
41632;BME280;37452;51.938;4.624;2022-11-11T01:38:54;78405.34;;;-142.75;100.00
41632;BME280;37452;51.938;4.624;2022-11-11T01:41:42;78425.03;;;-142.75;100.00
41632;BME280;37452;51.938;4.624;2022-11-11T01:49:36;78405.34;;;-142.75;100.00
41632;BME280;37452;51.938;4.624;2022-11-11T01:55:12;78409.28;;;-142.75;100.00
41632;BME280;37452;51.938;4.624;2022-11-11T01:57:46;78405.34;;;-142.75;100.00
41632;BME280;37452;51.938;4.624;2022-11-11T02:00:15;78421.09;;;-142.75;100.00
41632;BME280;37452;51.938;4.624;2022-11-11T02:02:46;78427.00;;;-142.75;100.00
41632;BME280;37452;51.938;4.624;2022-11-11T02:05:15;78432.91;;;-142.75;100.00
41632;BME280;37452;51.938;4.624;2022-11-11T02:08:02;78415.19;;;-142.75;100.00
41632;BME280;37452;51.938;4.624;2022-11-11T02:10:30;78405.34;;;-142.75;100.00
41632;BME280;37452;51.938;4.624;2022-11-11T02:12:56;78409.28;;;-142.75;100.00
41632;BME280;37452;51.938;4.624;2022-11-11T02:15:40;78403.38;;;-142.75;100.00
41632;BME280;37452;51.938;4.624;2022-11-11T02:18:06;78407.31;;;-142.75;100.00
41632;BME280;37452;51.938;4.624;2022-11-11T02:20:42;78399.44;;;-142.75;100.00
41632;BME280;37452;51.938;4.624;2022-11-11T02:23:25;78397.44;;;-142.75;100.00
41632;BME280;37452;51.938;4.624;2022-11-11T02:25:53;78399.44;;;-142.75;100.00
41632;BME280;37452;51.938;4.624;2022-11-11T02:28:20;78399.44;;;-142.75;100.00
41632;BME280;37452;51.938;4.624;2022-11-11T02:30:46;78401.38;;;-142.75;100.00
41632;BME280;37452;51.938;4.624;2022-11-11T02:33:11;78399.44;;;-142.75;100.00
41632;BME280;37452;51.938;4.624;2022-11-11T02:35:40;78397.44;;;-142.75;100.00
41632;BME280;37452;51.938;4.624;2022-11-11T02:38:07;78409.28;;;-142.75;100.00
41632;BME280;37452;51.938;4.624;2022-11-11T02:40:44;78401.38;;;-142.75;100.00
41632;BME280;37452;51.938;4.624;2022-11-11T02:43:30;78413.22;;;-142.75;100.00
41632;BME280;37452;51.938;4.624;2022-11-11T02:45:55;78417.16;;;-142.75;100.00
41632;BME280;37452;51.938;4.624;2022-11-11T02:48:21;78415.19;;;-142.75;100.00
41632;BME280;37452;51.938;4.624;2022-11-11T02:50:47;78405.34;;;-142.75;100.00
41632;BME280;37452;51.938;4.624;2022-11-11T02:53:12;78415.19;;;-142.75;100.00
41632;BME280;37452;51.938;4.624;2022-11-11T02:55:37;78411.25;;;-142.75;100.00
41632;BME280;37452;51.938;4.624;2022-11-11T02:58:02;78417.16;;;-142.75;100.00
41632;BME280;37452;51.938;4.624;2022-11-11T03:00:28;78417.16;;;-142.75;100.00
41632;BME280;37452;51.938;4.624;2022-11-11T03:02:53;78427.00;;;-142.75;100.00
41632;BME280;37452;51.938;4.624;2022-11-11T03:05:19;78428.97;;;-142.75;100.00
41632;BME280;37452;51.938;4.624;2022-11-11T03:07:44;78427.00;;;-142.75;100.00
41632;BME280;37452;51.938;4.624;2022-11-11T03:10:10;78440.78;;;-142.75;100.00
41632;BME280;37452;51.938;4.624;2022-11-11T03:12:35;78438.81;;;-142.75;100.00
41632;BME280;37452;51.938;4.624;2022-11-11T03:15:01;78432.91;;;-142.75;100.00
41632;BME280;37452;51.938;4.624;2022-11-11T03:17:26;78432.91;;;-142.75;100.00
41632;BME280;37452;51.938;4.624;2022-11-11T03:23:03;78446.69;;;-142.75;100.00
41632;BME280;37452;51.938;4.624;2022-11-11T03:25:29;78452.59;;;-142.75;100.00
41632;BME280;37452;51.938;4.624;2022-11-11T03:28:16;78448.66;;;-142.75;100.00
41632;BME280;37452;51.938;4.624;2022-11-11T03:30:42;78446.69;;;-142.75;100.00
41632;BME280;37452;51.938;4.624;2022-11-11T03:33:08;78452.59;;;-142.75;100.00
41632;BME280;37452;51.938;4.624;2022-11-11T03:35:33;78442.75;;;-142.75;100.00
41632;BME280;37452;51.938;4.624;2022-11-11T03:37:59;78444.72;;;-142.75;100.00
41632;BME280;37452;51.938;4.624;2022-11-11T03:40:44;78438.81;;;-142.75;100.00
41632;BME280;37452;51.938;4.624;2022-11-11T03:43:11;78432.91;;;-142.75;100.00
41632;BME280;37452;51.938;4.624;2022-11-11T03:45:37;78440.78;;;-142.75;100.00
41632;BME280;37452;51.938;4.624;2022-11-11T03:48:02;78448.66;;;-142.75;100.00
41632;BME280;37452;51.938;4.624;2022-11-11T03:50:28;78444.72;;;-142.75;100.00
41632;BME280;37452;51.938;4.624;2022-11-11T03:52:53;78444.72;;;-142.75;100.00
41632;BME280;37452;51.938;4.624;2022-11-11T03:55:18;78446.69;;;-142.75;100.00
41632;BME280;37452;51.938;4.624;2022-11-11T03:57:45;78456.53;;;-142.75;100.00
41632;BME280;37452;51.938;4.624;2022-11-11T04:00:15;78464.41;;;-142.75;100.00
41632;BME280;37452;51.938;4.624;2022-11-11T04:02:41;78458.50;;;-142.75;100.00
41632;BME280;37452;51.938;4.624;2022-11-11T04:05:25;78456.53;;;-142.75;100.00
41632;BME280;37452;51.938;4.624;2022-11-11T04:08:14;78452.59;;;-142.75;100.00
41632;BME280;37452;51.938;4.624;2022-11-11T04:11:00;78458.50;;;-142.75;100.00
41632;BME280;37452;51.938;4.624;2022-11-11T04:13:28;78460.47;;;-142.75;100.00
41632;BME280;37452;51.938;4.624;2022-11-11T04:16:12;78450.63;;;-142.75;100.00
41632;BME280;37452;51.938;4.624;2022-11-11T04:18:37;78450.63;;;-142.75;100.00
41632;BME280;37452;51.938;4.624;2022-11-11T04:21:23;78442.75;;;-142.75;100.00
41632;BME280;37452;51.938;4.624;2022-11-11T04:24:17;78436.84;;;-142.75;100.00
41632;BME280;37452;51.938;4.624;2022-11-11T04:27:04;78440.78;;;-142.75;100.00
41632;BME280;37452;51.938;4.624;2022-11-11T04:29:30;78454.56;;;-142.75;100.00
41632;BME280;37452;51.938;4.624;2022-11-11T04:32:03;78452.59;;;-142.75;100.00
41632;BME280;37452;51.938;4.624;2022-11-11T04:34:52;78464.41;;;-142.75;100.00
41632;BME280;37452;51.938;4.624;2022-11-11T04:37:18;78460.47;;;-142.75;100.00
41632;BME280;37452;51.938;4.624;2022-11-11T04:39:44;78464.41;;;-142.75;100.00
41632;BME280;37452;51.938;4.624;2022-11-11T04:42:30;78464.41;;;-142.75;100.00
41632;BME280;37452;51.938;4.624;2022-11-11T04:44:56;78464.41;;;-142.75;100.00
41632;BME280;37452;51.938;4.624;2022-11-11T04:48:06;78470.31;;;-142.75;100.00
41632;BME280;37452;51.938;4.624;2022-11-11T04:50:42;78476.22;;;-142.75;100.00
41632;BME280;37452;51.938;4.624;2022-11-11T04:53:10;78474.25;;;-142.75;100.00
41632;BME280;37452;51.938;4.624;2022-11-11T04:55:37;78470.31;;;-142.75;100.00
41632;BME280;37452;51.938;4.624;2022-11-11T04:58:24;78476.22;;;-142.75;100.00
41632;BME280;37452;51.938;4.624;2022-11-11T05:00:50;78486.06;;;-142.75;100.00
41632;BME280;37452;51.938;4.624;2022-11-11T05:03:17;78484.09;;;-142.75;100.00
41632;BME280;37452;51.938;4.624;2022-11-11T05:05:55;78484.09;;;-142.75;100.00
41632;BME280;37452;51.938;4.624;2022-11-11T05:08:42;78491.97;;;-142.75;100.00
41632;BME280;37452;51.938;4.624;2022-11-11T05:11:27;78482.13;;;-142.75;100.00
41632;BME280;37452;51.938;4.624;2022-11-11T05:13:55;78495.94;;;-142.75;100.00
41632;BME280;37452;51.938;4.624;2022-11-11T05:16:42;78491.97;;;-142.75;100.00
41632;BME280;37452;51.938;4.624;2022-11-11T05:19:26;78493.97;;;-142.75;100.00
41632;BME280;37452;51.938;4.624;2022-11-11T05:22:16;78491.97;;;-142.75;100.00
41632;BME280;37452;51.938;4.624;2022-11-11T05:24:43;78495.94;;;-142.75;100.00
41632;BME280;37452;51.938;4.624;2022-11-11T05:27:27;78488.03;;;-142.75;100.00
41632;BME280;37452;51.938;4.624;2022-11-11T05:29:53;78488.03;;;-142.75;100.00
41632;BME280;37452;51.938;4.624;2022-11-11T05:32:20;78493.97;;;-142.75;100.00
41632;BME280;37452;51.938;4.624;2022-11-11T05:34:45;78491.97;;;-142.75;100.00
41632;BME280;37452;51.938;4.624;2022-11-11T05:37:11;78503.81;;;-142.75;100.00
41632;BME280;37452;51.938;4.624;2022-11-11T05:39:37;78503.81;;;-142.75;100.00
41632;BME280;37452;51.938;4.624;2022-11-11T05:42:03;78511.69;;;-142.75;100.00
41632;BME280;37452;51.938;4.624;2022-11-11T05:44:28;78503.81;;;-142.75;100.00
41632;BME280;37452;51.938;4.624;2022-11-11T05:46:53;78509.72;;;-142.75;100.00
41632;BME280;37452;51.938;4.624;2022-11-11T05:49:19;78499.88;;;-142.75;100.00
41632;BME280;37452;51.938;4.624;2022-11-11T05:51:45;78513.66;;;-142.75;100.00
41632;BME280;37452;51.938;4.624;2022-11-11T05:54:12;78523.50;;;-142.75;100.00
41632;BME280;37452;51.938;4.624;2022-11-11T05:56:38;78523.50;;;-142.75;100.00
41632;BME280;37452;51.938;4.624;2022-11-11T05:59:03;78527.44;;;-142.75;100.00
41632;BME280;37452;51.938;4.624;2022-11-11T06:01:29;78513.66;;;-142.75;100.00
41632;BME280;37452;51.938;4.624;2022-11-11T06:03:55;78537.28;;;-142.75;100.00
41632;BME280;37452;51.938;4.624;2022-11-11T06:06:20;78539.25;;;-142.75;100.00
41632;BME280;37452;51.938;4.624;2022-11-11T06:08:46;78539.25;;;-142.75;100.00
41632;BME280;37452;51.938;4.624;2022-11-11T06:11:11;78531.38;;;-142.75;100.00
41632;BME280;37452;51.938;4.624;2022-11-11T06:13:36;78531.38;;;-142.75;100.00
41632;BME280;37452;51.938;4.624;2022-11-11T06:16:03;78523.50;;;-142.75;100.00
41632;BME280;37452;51.938;4.624;2022-11-11T06:18:28;78525.47;;;-142.75;100.00
41632;BME280;37452;51.938;4.624;2022-11-11T06:20:55;78531.38;;;-142.75;100.00
41632;BME280;37452;51.938;4.624;2022-11-11T06:23:21;78531.38;;;-142.75;100.00
41632;BME280;37452;51.938;4.624;2022-11-11T06:25:47;78517.59;;;-142.75;100.00
41632;BME280;37452;51.938;4.624;2022-11-11T06:28:32;78527.44;;;-142.75;100.00
41632;BME280;37452;51.938;4.624;2022-11-11T06:30:57;78531.38;;;-142.75;100.00
41632;BME280;37452;51.938;4.624;2022-11-11T06:33:22;78535.31;;;-142.75;100.00
41632;BME280;37452;51.938;4.624;2022-11-11T06:35:48;78543.19;;;-142.75;100.00
41632;BME280;37452;51.938;4.624;2022-11-11T06:38:13;78543.19;;;-142.75;100.00
41632;BME280;37452;51.938;4.624;2022-11-11T06:40:41;78555.00;;;-142.75;100.00
41632;BME280;37452;51.938;4.624;2022-11-11T06:43:07;78551.06;;;-142.75;100.00
41632;BME280;37452;51.938;4.624;2022-11-11T06:45:32;78547.13;;;-142.75;100.00
41632;BME280;37452;51.938;4.624;2022-11-11T06:47:59;78562.88;;;-142.75;100.00
41632;BME280;37452;51.938;4.624;2022-11-11T06:50:25;78553.03;;;-142.75;100.00
41632;BME280;37452;51.938;4.624;2022-11-11T06:52:51;78551.06;;;-142.75;100.00
41632;BME280;37452;51.938;4.624;2022-11-11T06:55:16;78545.16;;;-142.75;100.00
41632;BME280;37452;51.938;4.624;2022-11-11T06:57:41;78562.88;;;-142.75;100.00
41632;BME280;37452;51.938;4.624;2022-11-11T07:00:07;78543.19;;;-142.75;100.00
41632;BME280;37452;51.938;4.624;2022-11-11T07:02:33;78553.03;;;-142.75;100.00
41632;BME280;37452;51.938;4.624;2022-11-11T07:04:58;78551.06;;;-142.75;100.00
41632;BME280;37452;51.938;4.624;2022-11-11T07:07:24;78562.88;;;-142.75;100.00
41632;BME280;37452;51.938;4.624;2022-11-11T07:09:49;78590.47;;;-142.75;100.00
41632;BME280;37452;51.938;4.624;2022-11-11T07:12:16;78594.41;;;-142.75;100.00
41632;BME280;37452;51.938;4.624;2022-11-11T07:14:41;78592.44;;;-142.75;100.00
41632;BME280;37452;51.938;4.624;2022-11-11T07:17:07;78604.25;;;-142.75;100.00
41632;BME280;37452;51.938;4.624;2022-11-11T07:19:32;78600.31;;;-142.75;100.00
41632;BME280;37452;51.938;4.624;2022-11-11T07:21:57;78594.41;;;-142.75;100.00
41632;BME280;37452;51.938;4.624;2022-11-11T07:24:23;78608.19;;;-142.75;100.00
41632;BME280;37452;51.938;4.624;2022-11-11T07:26:48;78602.28;;;-142.75;100.00
41632;BME280;37452;51.938;4.624;2022-11-11T07:29:13;78629.84;;;-142.75;100.00
41632;BME280;37452;51.938;4.624;2022-11-11T07:31:40;78620.00;;;-142.75;100.00
41632;BME280;37452;51.938;4.624;2022-11-11T07:34:05;78621.97;;;-142.75;100.00
41632;BME280;37452;51.938;4.624;2022-11-11T07:36:30;78629.84;;;-142.75;100.00
41632;BME280;37452;51.938;4.624;2022-11-11T07:38:56;78625.91;;;-142.75;100.00
41632;BME280;37452;51.938;4.624;2022-11-11T07:41:21;78629.84;;;-142.75;100.00
41632;BME280;37452;51.938;4.624;2022-11-11T07:43:46;78623.94;;;-142.75;100.00
41632;BME280;37452;51.938;4.624;2022-11-11T07:46:11;78633.78;;;-142.75;100.00
41632;BME280;37452;51.938;4.624;2022-11-11T07:48:37;78621.97;;;-142.75;100.00
41632;BME280;37452;51.938;4.624;2022-11-11T07:51:02;78614.09;;;-142.75;100.00
41632;BME280;37452;51.938;4.624;2022-11-11T07:53:28;78614.09;;;-142.75;100.00
41632;BME280;37452;51.938;4.624;2022-11-11T07:55:53;78614.09;;;-142.75;100.00
41632;BME280;37452;51.938;4.624;2022-11-11T07:58:19;78614.09;;;-142.75;100.00
41632;BME280;37452;51.938;4.624;2022-11-11T08:00:44;78612.13;;;-142.75;100.00
41632;BME280;37452;51.938;4.624;2022-11-11T08:03:10;78618.03;;;-142.75;100.00
41632;BME280;37452;51.938;4.624;2022-11-11T08:05:35;78612.13;;;-142.75;100.00
41632;BME280;37452;51.938;4.624;2022-11-11T08:08:08;78618.03;;;-142.75;100.00
41632;BME280;37452;51.938;4.624;2022-11-11T08:10:34;78602.28;;;-142.75;100.00
41632;BME280;37452;51.938;4.624;2022-11-11T08:12:59;78620.00;;;-142.75;100.00
41632;BME280;37452;51.938;4.624;2022-11-11T08:15:43;78637.72;;;-142.75;100.00
41632;BME280;37452;51.938;4.624;2022-11-11T08:18:09;78637.72;;;-142.75;100.00
41632;BME280;37452;51.938;4.624;2022-11-11T08:20:34;78635.75;;;-142.75;100.00
41632;BME280;37452;51.938;4.624;2022-11-11T08:22:59;78637.72;;;-142.75;100.00
41632;BME280;37452;51.938;4.624;2022-11-11T08:25:28;78631.81;;;-142.75;100.00
41632;BME280;37452;51.938;4.624;2022-11-11T08:28:03;78641.66;;;-142.75;100.00
41632;BME280;37452;51.938;4.624;2022-11-11T08:30:28;78637.72;;;-142.75;100.00
41632;BME280;37452;51.938;4.624;2022-11-11T08:33:04;78623.94;;;-142.75;100.00
41632;BME280;37452;51.938;4.624;2022-11-11T08:35:30;78627.88;;;-142.75;100.00
41632;BME280;37452;51.938;4.624;2022-11-11T08:37:59;78620.00;;;-142.75;100.00
41632;BME280;37452;51.938;4.624;2022-11-11T08:40:25;78614.09;;;-142.75;100.00
41632;BME280;37452;51.938;4.624;2022-11-11T08:42:54;78602.28;;;-142.75;100.00
41632;BME280;37452;51.938;4.624;2022-11-11T08:45:20;78596.38;;;-142.75;100.00
41632;BME280;37452;51.938;4.624;2022-11-11T08:47:45;78586.53;;;-142.75;100.00
41632;BME280;37452;51.938;4.624;2022-11-11T08:50:11;78594.41;;;-142.75;100.00
41632;BME280;37452;51.938;4.624;2022-11-11T08:52:36;78592.44;;;-142.75;100.00
41632;BME280;37452;51.938;4.624;2022-11-11T08:55:02;78578.63;;;-142.75;100.00
41632;BME280;37452;51.938;4.624;2022-11-11T08:57:27;78588.50;;;-142.75;100.00
41632;BME280;37452;51.938;4.624;2022-11-11T08:59:52;78574.69;;;-142.75;100.00
41632;BME280;37452;51.938;4.624;2022-11-11T09:02:18;78578.63;;;-142.75;100.00
41632;BME280;37452;51.938;4.624;2022-11-11T09:04:43;78588.50;;;-142.75;100.00
41632;BME280;37452;51.938;4.624;2022-11-11T09:07:10;78578.63;;;-142.75;100.00
41632;BME280;37452;51.938;4.624;2022-11-11T09:09:35;78596.38;;;-142.75;100.00
41632;BME280;37452;51.938;4.624;2022-11-11T09:12:01;78604.25;;;-142.75;100.00
41632;BME280;37452;51.938;4.624;2022-11-11T09:14:26;78614.09;;;-142.75;100.00
41632;BME280;37452;51.938;4.624;2022-11-11T09:16:52;78618.03;;;-142.75;100.00
41632;BME280;37452;51.938;4.624;2022-11-11T09:19:17;78618.03;;;-142.75;100.00
41632;BME280;37452;51.938;4.624;2022-11-11T09:21:42;78614.09;;;-142.75;100.00
41632;BME280;37452;51.938;4.624;2022-11-11T09:24:08;78633.78;;;-142.75;100.00
41632;BME280;37452;51.938;4.624;2022-11-11T09:26:33;78625.91;;;-142.75;100.00
41632;BME280;37452;51.938;4.624;2022-11-11T09:28:58;78641.66;;;-142.75;100.00
41632;BME280;37452;51.938;4.624;2022-11-11T09:31:24;78625.91;;;-142.75;100.00
41632;BME280;37452;51.938;4.624;2022-11-11T09:33:50;78653.47;;;-142.75;100.00
41632;BME280;37452;51.938;4.624;2022-11-11T09:36:15;78647.56;;;-142.75;100.00
41632;BME280;37452;51.938;4.624;2022-11-11T09:38:41;78641.66;;;-142.75;100.00
41632;BME280;37452;51.938;4.624;2022-11-11T09:50:08;78649.53;;;-142.75;100.00
41632;BME280;37452;51.938;4.624;2022-11-11T09:57:48;78625.91;;;-142.75;100.00
41632;BME280;37452;51.938;4.624;2022-11-11T10:00:20;78639.69;;;-142.75;100.00
41632;BME280;37452;51.938;4.624;2022-11-11T10:02:50;78637.72;;;-142.75;100.00
41632;BME280;37452;51.938;4.624;2022-11-11T10:05:33;78641.66;;;-142.75;100.00
41632;BME280;37452;51.938;4.624;2022-11-11T10:08:14;78635.75;;;-142.75;100.00
41632;BME280;37452;51.938;4.624;2022-11-11T10:10:43;78629.84;;;-142.75;100.00
41632;BME280;37452;51.938;4.624;2022-11-11T10:13:13;78616.06;;;-142.75;100.00
41632;BME280;37452;51.938;4.624;2022-11-11T10:18:45;78612.13;;;-142.75;100.00
41632;BME280;37452;51.938;4.624;2022-11-11T10:21:16;78618.03;;;-142.75;100.00
41632;BME280;37452;51.938;4.624;2022-11-11T10:23:47;78625.91;;;-142.75;100.00
41632;BME280;37452;51.938;4.624;2022-11-11T10:26:24;78625.91;;;-142.75;100.00
41632;BME280;37452;51.938;4.624;2022-11-11T10:28:52;78625.91;;;-142.75;100.00
41632;BME280;37452;51.938;4.624;2022-11-11T10:31:20;78631.81;;;-142.75;100.00
41632;BME280;37452;51.938;4.624;2022-11-11T10:36:27;78641.66;;;-142.75;100.00
41632;BME280;37452;51.938;4.624;2022-11-11T10:38:58;78633.78;;;-142.75;100.00
41632;BME280;37452;51.938;4.624;2022-11-11T10:43:53;78618.03;;;-142.75;100.00
41632;BME280;37452;51.938;4.624;2022-11-11T10:46:27;78610.16;;;-142.75;100.00
41632;BME280;37452;51.938;4.624;2022-11-11T10:48:59;78627.88;;;-142.75;100.00
41632;BME280;37452;51.938;4.624;2022-11-11T10:51:30;78621.97;;;-142.75;100.00
41632;BME280;37452;51.938;4.624;2022-11-11T10:54:13;78618.03;;;-142.75;100.00
41632;BME280;37452;51.938;4.624;2022-11-11T10:59:33;78602.28;;;-142.75;100.00
41632;BME280;37452;51.938;4.624;2022-11-11T11:02:07;78598.34;;;-142.75;100.00
41632;BME280;37452;51.938;4.624;2022-11-11T11:04:40;78594.41;;;-142.75;100.00
41632;BME280;37452;51.938;4.624;2022-11-11T11:07:10;78608.19;;;-142.75;100.00
41632;BME280;37452;51.938;4.624;2022-11-11T11:09:49;78614.09;;;-142.75;100.00
41632;BME280;37452;51.938;4.624;2022-11-11T11:15:18;78631.81;;;-142.75;100.00
41632;BME280;37452;51.938;4.624;2022-11-11T11:20:22;78618.03;;;-142.75;100.00
41632;BME280;37452;51.938;4.624;2022-11-11T11:22:53;78588.50;;;-142.75;100.00
41632;BME280;37452;51.938;4.624;2022-11-11T11:25:21;78572.72;;;-142.75;100.00
41632;BME280;37452;51.938;4.624;2022-11-11T11:27:49;78562.88;;;-142.75;100.00
41632;BME280;37452;51.938;4.624;2022-11-11T11:30:24;78529.41;;;-142.75;100.00
41632;BME280;37452;51.938;4.624;2022-11-11T11:35:32;78493.97;;;-142.75;100.00
41632;BME280;37452;51.938;4.624;2022-11-11T11:37:57;78488.03;;;-142.75;100.00
41632;BME280;37452;51.938;4.624;2022-11-11T11:40:23;78488.03;;;-142.75;100.00
41632;BME280;37452;51.938;4.624;2022-11-11T11:42:48;78493.97;;;-142.75;100.00
41632;BME280;37452;51.938;4.624;2022-11-11T11:45:22;78456.53;;;-142.75;100.00
41632;BME280;37452;51.938;4.624;2022-11-11T11:48:08;78425.03;;;-142.75;100.00
41632;BME280;37452;51.938;4.624;2022-11-11T11:50:43;78362.00;;;-142.75;100.00
41632;BME280;37452;51.938;4.624;2022-11-11T11:56:19;78295.06;;;-142.75;100.00
41632;BME280;37452;51.938;4.624;2022-11-11T12:01:26;78249.75;;;-142.75;100.00
41632;BME280;37452;51.938;4.624;2022-11-11T12:04:14;78226.13;;;-142.75;100.00
41632;BME280;37452;51.938;4.624;2022-11-11T12:07:16;78220.22;;;-142.75;100.00
41632;BME280;37452;51.938;4.624;2022-11-11T12:09:56;78232.03;;;-142.75;100.00
41632;BME280;37452;51.938;4.624;2022-11-11T12:15:39;78172.94;;;-142.75;100.00
41632;BME280;37452;51.938;4.624;2022-11-11T12:21:17;78192.66;;;-142.75;100.00
41632;BME280;37452;51.938;4.624;2022-11-11T12:26:50;78133.56;;;-142.75;100.00
41632;BME280;37452;51.938;4.624;2022-11-11T12:33:13;78015.41;;;-142.75;100.00
41632;BME280;37452;51.938;4.624;2022-11-11T12:39:28;78046.91;;;-142.75;100.00
41632;BME280;37452;51.938;4.624;2022-11-11T12:44:11;78098.13;;;-142.75;100.00
41632;BME280;37452;51.938;4.624;2022-11-11T12:52:17;78070.56;;;-142.75;100.00
41632;BME280;37452;51.938;4.624;2022-11-11T12:55:11;78090.25;;;-142.75;100.00
41632;BME280;37452;51.938;4.624;2022-11-11T12:58:09;78088.28;;;-142.75;100.00
41632;BME280;37452;51.938;4.624;2022-11-11T13:00:51;78074.50;;;-142.75;100.00
41632;BME280;37452;51.938;4.624;2022-11-11T13:03:47;78037.06;;;-142.75;100.00
41632;BME280;37452;51.938;4.624;2022-11-11T13:17:13;78137.50;;;-142.75;100.00
41632;BME280;37452;51.938;4.624;2022-11-11T13:19:40;78145.38;;;-142.75;100.00
41632;BME280;37452;51.938;4.624;2022-11-11T13:22:34;78135.53;;;-142.75;100.00
41632;BME280;37452;51.938;4.624;2022-11-11T13:25:02;78159.16;;;-142.75;100.00
41632;BME280;37452;51.938;4.624;2022-11-11T13:27:38;78178.84;;;-142.75;100.00
41632;BME280;37452;51.938;4.624;2022-11-11T13:30:16;78165.06;;;-142.75;100.00
41632;BME280;37452;51.938;4.624;2022-11-11T13:35:44;78190.69;;;-142.75;100.00
41632;BME280;37452;51.938;4.624;2022-11-11T13:40:55;78210.38;;;-142.75;100.00
41632;BME280;37452;51.938;4.624;2022-11-11T13:45:53;78202.50;;;-142.75;100.00
41632;BME280;37452;51.938;4.624;2022-11-11T13:48:25;78196.59;;;-142.75;100.00
41632;BME280;37452;51.938;4.624;2022-11-11T13:50:51;78188.72;;;-142.75;100.00
41632;BME280;37452;51.938;4.624;2022-11-11T13:53:27;78196.59;;;-142.75;100.00
41632;BME280;37452;51.938;4.624;2022-11-11T13:56:00;78192.66;;;-142.75;100.00
41632;BME280;37452;51.938;4.624;2022-11-11T13:58:30;78180.81;;;-142.75;100.00
41632;BME280;37452;51.938;4.624;2022-11-11T14:00:59;78184.78;;;-142.75;100.00
41632;BME280;37452;51.938;4.624;2022-11-11T14:13:52;78212.34;;;-142.75;100.00
41632;BME280;37452;51.938;4.624;2022-11-11T14:21:49;78230.06;;;-142.75;100.00
41632;BME280;37452;51.938;4.624;2022-11-11T14:24:33;78216.28;;;-142.75;100.00
41632;BME280;37452;51.938;4.624;2022-11-11T14:27:14;78235.97;;;-142.75;100.00
41632;BME280;37452;51.938;4.624;2022-11-11T14:29:51;78226.13;;;-142.75;100.00
41632;BME280;37452;51.938;4.624;2022-11-11T14:40:40;78218.25;;;-142.75;100.00
41632;BME280;37452;51.938;4.624;2022-11-11T14:43:39;78210.38;;;-142.75;100.00
41632;BME280;37452;51.938;4.624;2022-11-11T14:46:07;78212.34;;;-142.75;100.00